createdAt,value
2018-08-31T00:01:41.544Z,100462.01
2018-08-31T00:04:46.007Z,100455.89
2018-08-31T00:07:29.562Z,100451.95
2018-08-31T00:12:12.289Z,100451.51
2018-08-31T00:14:40.925Z,100451.39
2018-08-31T00:17:09.433Z,100448.31
2018-08-31T00:19:37.923Z,100449.63
2018-08-31T00:22:06.432Z,100448.31
2018-08-31T00:24:46.196Z,100450.95
2018-08-31T00:27:25.807Z,100449.37
2018-08-31T00:31:05.558Z,100446.02
2018-08-31T00:33:44.934Z,100438.67
2018-08-31T00:36:23.500Z,100440.82
2018-08-31T00:39:07.648Z,100442.00
2018-08-31T00:41:53.733Z,100440.59
2018-08-31T00:44:30.767Z,100441.09
2018-08-31T00:46:59.223Z,100444.16
2018-08-31T00:49:27.744Z,100453.83
2018-08-31T00:51:56.223Z,100453.83
2018-08-31T00:54:24.727Z,100454.30
2018-08-31T00:56:53.255Z,100460.12
2018-08-31T00:59:21.768Z,100451.77
2018-08-31T01:01:50.357Z,100448.20
2018-08-31T01:04:18.875Z,100449.95
2018-08-31T01:06:48.044Z,100449.53
2018-08-31T01:09:16.556Z,100449.56
2018-08-31T01:11:45.081Z,100448.76
2018-08-31T01:14:13.622Z,100445.70
2018-08-31T01:16:42.119Z,100440.88
2018-08-31T01:19:10.648Z,100439.56
2018-08-31T01:21:39.155Z,100438.65
2018-08-31T01:24:07.684Z,100441.32
2018-08-31T01:26:36.214Z,100444.46
2018-08-31T01:29:04.720Z,100441.02
2018-08-31T01:31:33.189Z,100439.78
2018-08-31T01:34:01.714Z,100446.83
2018-08-31T01:36:30.381Z,100442.00
2018-08-31T01:38:58.914Z,100443.33
2018-08-31T01:41:27.426Z,100441.16
2018-08-31T01:43:55.905Z,100436.33
2018-08-31T01:46:24.435Z,100438.56
2018-08-31T01:48:53.006Z,100439.08
2018-08-31T01:51:21.884Z,100442.63
2018-08-31T01:53:50.376Z,100445.80
2018-08-31T01:56:18.908Z,100480.98
2018-08-31T01:58:47.430Z,100441.42
2018-08-31T02:01:15.968Z,100437.02
2018-08-31T02:03:44.509Z,100438.75
2018-08-31T02:06:13.045Z,100434.81
2018-08-31T02:08:46.873Z,100440.59
2018-08-31T02:11:15.426Z,100440.67
2018-08-31T02:13:43.921Z,100440.70
2018-08-31T02:16:12.487Z,100445.16
2018-08-31T02:18:40.976Z,100449.21
2018-08-31T02:21:09.450Z,100449.67
2018-08-31T02:23:38.104Z,100450.16
2018-08-31T02:26:06.639Z,100447.11
2018-08-31T02:28:35.102Z,100451.08
2018-08-31T02:31:03.639Z,100446.30
2018-08-31T02:33:32.135Z,100448.12
2018-08-31T02:36:00.809Z,100445.06
2018-08-31T02:38:29.347Z,100415.51
2018-08-31T02:40:57.899Z,100442.03
2018-08-31T02:43:26.549Z,100442.03
2018-08-31T02:45:55.043Z,100441.20
2018-08-31T02:48:23.508Z,100439.88
2018-08-31T02:50:51.980Z,100437.23
2018-08-31T02:53:20.517Z,100446.07
2018-08-31T02:55:48.999Z,100448.30
2018-08-31T02:58:17.480Z,100441.30
2018-08-31T03:00:45.963Z,100450.98
2018-08-31T03:03:14.449Z,100438.28
2018-08-31T03:05:43.060Z,100443.16
2018-08-31T03:08:11.606Z,100444.53
2018-08-31T03:10:40.303Z,100437.53
2018-08-31T03:13:08.808Z,100439.78
2018-08-31T03:15:37.294Z,100449.03
2018-08-31T03:18:05.796Z,100447.30
2018-08-31T03:20:34.346Z,100447.31
2018-08-31T03:23:02.907Z,100446.47
2018-08-31T03:25:31.422Z,100442.52
2018-08-31T03:27:59.967Z,100441.22
2018-08-31T03:30:29.099Z,100444.83
2018-08-31T03:32:57.727Z,100447.05
2018-08-31T03:35:26.427Z,100452.28
2018-08-31T03:37:55.349Z,100446.17
2018-08-31T03:40:23.895Z,100448.81
2018-08-31T03:42:52.436Z,100448.83
2018-08-31T03:45:21.059Z,100450.16
2018-08-31T03:47:49.975Z,100450.20
2018-08-31T03:50:18.901Z,100450.66
2018-08-31T03:52:47.406Z,100448.92
2018-08-31T03:55:15.995Z,100446.75
2018-08-31T03:57:44.559Z,100439.31
2018-08-31T04:00:13.176Z,100443.28
2018-08-31T04:02:41.743Z,100439.75
2018-08-31T04:05:10.479Z,100445.04
2018-08-31T04:07:38.995Z,100450.81
2018-08-31T04:10:08.296Z,100445.55
2018-08-31T04:12:36.880Z,100448.68
2018-08-31T04:15:05.542Z,100441.19
2018-08-31T04:17:34.040Z,100441.68
2018-08-31T04:20:02.575Z,100443.47
2018-08-31T04:22:31.152Z,100439.51
2018-08-31T04:24:59.616Z,100443.91
2018-08-31T04:27:28.218Z,100444.39
2018-08-31T04:29:56.726Z,100506.47
2018-08-31T04:32:25.196Z,100442.66
2018-08-31T04:34:53.714Z,100442.23
2018-08-31T04:37:22.238Z,100445.78
2018-08-31T04:39:50.866Z,100451.06
2018-08-31T04:42:19.388Z,100450.19
2018-08-31T04:44:47.899Z,100447.13
2018-08-31T04:47:16.453Z,100451.50
2018-08-31T04:49:45.092Z,100447.11
2018-08-31T04:52:13.631Z,100450.16
2018-08-31T04:54:42.163Z,100453.71
2018-08-31T04:57:10.720Z,100448.84
2018-08-31T04:59:39.283Z,100454.07
2018-08-31T05:02:07.844Z,100444.81
2018-08-31T05:04:36.345Z,100453.56
2018-08-31T05:07:04.920Z,100455.72
2018-08-31T05:09:33.470Z,100458.78
2018-08-31T05:12:02.003Z,100454.36
2018-08-31T05:14:30.508Z,100451.66
2018-08-31T05:16:59.116Z,100453.36
2018-08-31T05:19:27.661Z,100447.61
2018-08-31T05:21:56.197Z,100455.44
2018-08-31T05:24:24.741Z,100464.66
2018-08-31T05:26:53.233Z,100461.53
2018-08-31T05:29:21.789Z,100462.81
2018-08-31T05:31:50.299Z,100467.14
2018-08-31T05:34:18.855Z,100470.16
2018-08-31T05:36:47.362Z,100472.72
2018-08-31T05:39:15.888Z,100473.06
2018-08-31T05:41:44.556Z,100466.84
2018-08-31T05:44:13.111Z,100481.34
2018-08-31T05:46:41.668Z,100474.23
2018-08-31T05:49:10.195Z,100479.47
2018-08-31T05:51:38.699Z,100482.92
2018-08-31T05:54:07.412Z,100484.64
2018-08-31T05:56:35.995Z,100486.77
2018-08-31T05:59:04.516Z,100483.61
2018-08-31T06:01:32.980Z,100483.94
2018-08-31T06:04:01.492Z,100486.54
2018-08-31T06:06:29.954Z,100485.11
2018-08-31T06:08:58.561Z,100484.91
2018-08-31T06:11:27.142Z,100486.06
2018-08-31T06:13:55.688Z,100492.58
2018-08-31T06:16:24.351Z,100491.54
2018-08-31T06:18:52.921Z,100491.73
2018-08-31T06:21:21.586Z,100492.30
2018-08-31T06:23:50.132Z,100494.55
2018-08-31T06:26:18.737Z,100502.05
2018-08-31T06:28:47.366Z,100500.34
2018-08-31T06:31:16.039Z,100503.03
2018-08-31T06:33:44.969Z,100501.77
2018-08-31T06:36:14.098Z,100501.37
2018-08-31T06:38:42.744Z,100508.42
2018-08-31T06:41:11.347Z,100509.69
2018-08-31T06:43:39.917Z,100504.57
2018-08-31T06:46:08.467Z,100510.38
2018-08-31T06:48:37.082Z,100512.70
2018-08-31T06:51:05.692Z,100513.66
2018-08-31T06:53:34.273Z,100513.67
2018-08-31T06:56:02.906Z,100514.73
2018-08-31T06:58:32.066Z,100513.19
2018-08-31T07:01:01.111Z,100515.14
2018-08-31T07:03:30.944Z,100513.61
2018-08-31T07:05:59.630Z,100507.20
2018-08-31T07:08:28.277Z,100505.80
2018-08-31T07:10:56.858Z,100506.34
2018-08-31T07:13:25.378Z,100507.20
2018-08-31T07:15:54.027Z,100513.20
2018-08-31T07:18:22.619Z,100508.67
2018-08-31T07:20:52.266Z,100508.33
2018-08-31T07:23:21.311Z,100513.72
2018-08-31T07:25:49.896Z,100512.91
2018-08-31T07:28:18.475Z,100516.62
2018-08-31T07:30:47.060Z,100519.28
2018-08-31T07:33:15.651Z,100519.75
2018-08-31T07:35:44.163Z,100527.39
2018-08-31T07:38:12.632Z,100526.55
2018-08-31T07:40:41.265Z,100524.87
2018-08-31T07:43:09.836Z,100531.38
2018-08-31T07:45:38.344Z,100527.73
2018-08-31T07:48:06.871Z,100530.40
2018-08-31T07:50:35.540Z,100527.45
2018-08-31T07:53:04.292Z,100533.45
2018-08-31T07:55:32.958Z,100525.02
2018-08-31T07:58:02.635Z,100529.55
2018-08-31T08:00:31.313Z,100530.20
2018-08-31T08:02:59.853Z,100528.72
2018-08-31T08:05:28.649Z,100530.19
2018-08-31T08:08:00.237Z,100533.88
2018-08-31T08:10:28.928Z,100538.66
2018-08-31T08:12:57.535Z,100535.75
2018-08-31T08:15:26.112Z,100540.03
2018-08-31T08:17:54.641Z,100537.98
2018-08-31T08:20:23.832Z,100541.47
2018-08-31T08:22:52.557Z,100546.56
2018-08-31T08:25:21.410Z,100546.19
2018-08-31T08:27:50.232Z,100547.45
2018-08-31T08:30:18.794Z,100537.13
2018-08-31T08:32:47.348Z,100546.48
2018-08-31T08:35:16.006Z,100547.85
2018-08-31T08:37:44.568Z,100543.80
2018-08-31T08:40:13.269Z,100544.48
2018-08-31T08:42:42.003Z,100544.76
2018-08-31T08:45:10.512Z,100545.18
2018-08-31T08:47:39.268Z,100545.61
2018-08-31T08:50:07.880Z,100545.80
2018-08-31T08:52:36.567Z,100545.04
2018-08-31T08:55:05.256Z,100545.66
2018-08-31T08:57:33.886Z,100545.55
2018-08-31T09:00:02.708Z,100551.69
2018-08-31T09:02:31.287Z,100544.61
2018-08-31T09:04:59.903Z,100541.22
2018-08-31T09:07:28.480Z,100543.70
2018-08-31T09:09:57.072Z,100537.37
2018-08-31T09:12:25.738Z,100535.58
2018-08-31T09:14:54.349Z,100536.16
2018-08-31T09:17:22.923Z,100538.53
2018-08-31T09:19:51.435Z,100538.59
2018-08-31T09:22:20.014Z,100544.18
2018-08-31T09:24:48.676Z,100533.34
2018-08-31T09:27:17.331Z,100537.33
2018-08-31T09:29:46.131Z,100534.00
2018-08-31T09:32:19.855Z,100530.04
2018-08-31T09:34:51.965Z,100528.45
2018-08-31T09:37:21.241Z,100535.33
2018-08-31T09:39:50.275Z,100527.00
2018-08-31T09:42:19.678Z,100524.31
2018-08-31T09:44:48.400Z,100528.81
2018-08-31T09:47:17.089Z,100525.70
2018-08-31T09:49:46.684Z,100523.36
2018-08-31T09:52:17.163Z,100526.23
2018-08-31T09:54:45.791Z,100523.73
2018-08-31T09:57:14.386Z,100517.11
2018-08-31T09:59:42.959Z,100521.83
2018-08-31T10:02:16.688Z,100517.88
2018-08-31T10:04:45.974Z,100514.38
2018-08-31T10:07:14.500Z,100515.43
2018-08-31T10:09:43.108Z,100516.96
2018-08-31T10:12:11.763Z,100520.92
2018-08-31T10:14:40.270Z,100514.41
2018-08-31T10:17:09.065Z,100513.74
2018-08-31T10:19:37.655Z,100516.52
2018-08-31T10:22:06.332Z,100507.92
2018-08-31T10:24:35.137Z,100512.19
2018-08-31T10:27:03.715Z,100510.83
2018-08-31T10:29:32.255Z,100508.51
2018-08-31T10:32:00.911Z,100509.97
2018-08-31T10:34:29.439Z,100508.13
2018-08-31T10:36:58.086Z,100503.25
2018-08-31T10:39:27.144Z,100505.09
2018-08-31T10:41:55.784Z,100507.64
2018-08-31T10:44:24.351Z,100485.27
2018-08-31T10:46:53.034Z,100508.73
2018-08-31T10:49:21.596Z,100510.91
2018-08-31T10:51:50.296Z,100507.10
2018-08-31T10:54:18.941Z,100512.63
2018-08-31T10:56:47.641Z,100512.28
2018-08-31T10:59:16.233Z,100514.52
2018-08-31T11:01:44.844Z,100516.06
2018-08-31T11:04:13.336Z,100511.13
2018-08-31T11:06:41.947Z,100510.44
2018-08-31T11:09:10.561Z,100518.45
2018-08-31T11:11:39.183Z,100517.42
2018-08-31T11:14:07.660Z,100518.50
2018-08-31T11:16:36.260Z,100523.77
2018-08-31T11:19:04.856Z,100518.37
2018-08-31T11:21:33.526Z,100517.48
2018-08-31T11:24:02.223Z,100516.58
2018-08-31T11:26:30.848Z,100516.09
2018-08-31T11:28:59.550Z,100517.42
2018-08-31T11:31:28.196Z,100513.41
2018-08-31T11:33:57.245Z,100515.45
2018-08-31T11:36:25.794Z,100520.62
2018-08-31T11:38:54.420Z,100513.68
2018-08-31T11:41:23.070Z,100513.30
2018-08-31T11:43:51.721Z,100510.75
2018-08-31T11:46:20.335Z,100439.48
2018-08-31T11:48:49.861Z,100508.05
2018-08-31T11:51:18.468Z,100501.56
2018-08-31T11:53:47.053Z,100503.56
2018-08-31T11:56:15.972Z,100504.38
2018-08-31T11:58:44.536Z,100495.98
2018-08-31T12:01:13.526Z,100500.23
2018-08-31T12:03:42.095Z,100500.12
2018-08-31T12:06:10.699Z,100492.42
2018-08-31T12:08:39.352Z,100494.45
2018-08-31T12:11:07.904Z,100499.77
2018-08-31T12:13:36.680Z,100496.40
2018-08-31T12:16:05.373Z,100493.45
2018-08-31T12:18:42.404Z,100494.02
2018-08-31T12:21:11.652Z,100488.42
2018-08-31T12:23:40.143Z,100497.33
2018-08-31T12:26:08.792Z,100495.76
2018-08-31T12:28:37.431Z,100484.81
2018-08-31T12:31:06.286Z,100488.37
2018-08-31T12:33:34.889Z,100483.63
2018-08-31T12:36:03.602Z,100478.03
2018-08-31T12:38:32.064Z,100478.80
2018-08-31T12:41:00.716Z,100477.61
2018-08-31T12:43:29.262Z,100477.96
2018-08-31T12:45:57.921Z,100478.48
2018-08-31T12:48:26.558Z,100482.44
2018-08-31T12:50:55.076Z,100485.15
2018-08-31T12:53:23.730Z,100485.61
2018-08-31T12:55:53.271Z,100494.60
2018-08-31T12:58:21.907Z,100487.23
2018-08-31T13:00:50.536Z,100478.88
2018-08-31T13:03:19.151Z,100475.91
2018-08-31T13:05:47.983Z,100480.59
2018-08-31T13:08:16.510Z,100483.30
2018-08-31T13:10:45.131Z,100483.43
2018-08-31T13:13:13.715Z,100448.13
2018-08-31T13:15:42.305Z,100469.42
2018-08-31T13:18:10.812Z,100471.25
2018-08-31T13:20:39.481Z,100473.74
2018-08-31T13:23:08.163Z,100471.86
2018-08-31T13:25:36.771Z,100459.25
2018-08-31T13:28:05.362Z,100457.98
2018-08-31T13:30:34.033Z,100451.38
2018-08-31T13:33:02.792Z,100457.13
2018-08-31T13:35:31.451Z,100451.72
2018-08-31T13:38:00.352Z,100449.34
2018-08-31T13:40:29.395Z,100451.47
2018-08-31T13:42:58.005Z,100457.13
2018-08-31T13:45:26.668Z,100455.47
2018-08-31T13:47:55.533Z,100456.12
2018-08-31T13:50:24.113Z,100459.48
2018-08-31T13:52:52.727Z,100460.83
2018-08-31T13:55:21.485Z,100459.34
2018-08-31T13:57:50.128Z,100452.23
2018-08-31T14:00:18.834Z,100465.22
2018-08-31T14:02:47.513Z,100463.57
2018-08-31T14:05:16.168Z,100463.53
2018-08-31T14:07:45.703Z,100481.70
2018-08-31T14:10:14.412Z,100465.72
2018-08-31T14:12:43.127Z,100462.48
2018-08-31T14:15:11.807Z,100463.64
2018-08-31T14:17:40.606Z,100469.86
2018-08-31T14:20:09.312Z,100467.84
2018-08-31T14:22:37.959Z,100468.39
2018-08-31T14:25:06.626Z,100473.50
2018-08-31T14:27:35.259Z,100464.72
2018-08-31T14:30:03.937Z,100470.70
2018-08-31T14:32:32.553Z,100465.74
2018-08-31T14:35:01.109Z,100470.89
2018-08-31T14:37:30.200Z,100473.81
2018-08-31T14:39:59.000Z,100466.34
2018-08-31T14:42:27.805Z,100470.55
2018-08-31T14:44:56.472Z,100462.69
2018-08-31T14:47:25.097Z,100472.88
2018-08-31T14:49:53.933Z,100464.84
2018-08-31T14:52:22.502Z,100469.30
2018-08-31T14:54:51.139Z,100469.70
2018-08-31T14:57:19.664Z,100462.38
2018-08-31T14:59:48.331Z,100461.59
2018-08-31T15:02:17.020Z,100462.86
2018-08-31T15:04:45.670Z,100462.34
2018-08-31T15:07:14.349Z,100468.33
2018-08-31T15:09:42.927Z,100463.08
2018-08-31T15:12:11.460Z,100468.34
2018-08-31T15:14:40.309Z,100474.16
2018-08-31T15:17:08.876Z,100475.91
2018-08-31T15:19:37.624Z,100473.70
2018-08-31T15:22:06.280Z,100473.94
2018-08-31T15:24:34.801Z,100470.95
2018-08-31T15:27:03.585Z,100473.40
2018-08-31T15:29:32.467Z,100469.53
2018-08-31T15:32:01.132Z,100464.67
2018-08-31T15:34:29.834Z,100466.42
2018-08-31T15:36:58.508Z,100460.43
2018-08-31T15:39:27.042Z,100467.11
2018-08-31T15:41:55.628Z,100457.03
2018-08-31T15:44:24.282Z,100462.11
2018-08-31T15:46:52.796Z,100460.49
2018-08-31T15:49:21.397Z,100458.90
2018-08-31T15:51:49.968Z,100464.80
2018-08-31T15:54:18.585Z,100460.40
2018-08-31T15:56:47.125Z,100465.25
2018-08-31T15:59:15.735Z,100457.02
2018-08-31T16:01:44.305Z,100459.66
2018-08-31T16:04:13.103Z,100456.66
2018-08-31T16:06:41.962Z,100460.95
2018-08-31T16:09:11.332Z,100457.19
2018-08-31T16:11:40.072Z,100459.53
2018-08-31T16:14:08.897Z,100459.23
2018-08-31T16:16:37.635Z,100466.68
2018-08-31T16:19:06.559Z,100471.41
2018-08-31T16:21:35.178Z,100471.57
2018-08-31T16:24:03.956Z,100469.05
2018-08-31T16:26:32.746Z,99967.75
2018-08-31T16:29:01.616Z,100470.06
2018-08-31T16:31:30.320Z,100462.48
2018-08-31T16:33:59.073Z,100470.36
2018-08-31T16:36:27.964Z,100462.36
2018-08-31T16:38:56.764Z,100464.63
2018-08-31T16:41:25.628Z,100470.30
2018-08-31T16:43:54.471Z,100469.76
2018-08-31T16:46:23.264Z,100471.16
2018-08-31T16:48:52.273Z,100473.97
2018-08-31T16:51:21.044Z,100475.91
2018-08-31T16:53:50.005Z,100474.24
2018-08-31T16:56:19.392Z,100316.50
2018-08-31T16:58:48.030Z,100470.81
2018-08-31T17:01:16.717Z,100469.08
2018-08-31T17:03:45.653Z,100468.20
2018-08-31T17:06:14.497Z,100475.41
2018-08-31T17:08:43.618Z,100477.72
2018-08-31T17:11:12.588Z,100470.56
2018-08-31T17:13:41.620Z,100480.94
2018-08-31T17:16:10.472Z,100478.63
2018-08-31T17:18:39.281Z,100480.20
2018-08-31T17:21:08.088Z,100479.47
2018-08-31T17:23:37.164Z,100476.21
2018-08-31T17:26:06.241Z,100479.07
2018-08-31T18:14:15.191Z,100522.11
2018-08-31T18:16:44.931Z,100520.09
2018-08-31T18:19:14.536Z,100518.88
2018-08-31T18:21:49.947Z,100519.50
2018-08-31T18:24:19.556Z,100523.69
2018-08-31T18:26:48.991Z,100522.20
2018-08-31T18:29:18.796Z,100526.80
2018-08-31T18:31:48.103Z,100520.83
2018-08-31T18:34:17.345Z,100528.60
2018-08-31T18:36:46.293Z,100528.87
2018-08-31T18:39:15.320Z,100526.50
2018-08-31T18:41:44.574Z,100533.89
2018-08-31T18:44:13.625Z,100537.69
2018-08-31T18:46:43.537Z,100537.88
2018-08-31T18:49:12.834Z,100538.98
2018-08-31T18:51:42.159Z,100545.88
2018-08-31T18:54:11.294Z,100546.14
2018-08-31T18:56:40.910Z,100555.20
2018-08-31T18:59:10.054Z,100560.27
2018-08-31T19:01:39.291Z,100559.13
2018-08-31T19:04:08.592Z,100562.02
2018-08-31T19:06:38.217Z,100562.63
2018-08-31T19:09:08.870Z,100566.78
2018-08-31T19:11:37.923Z,100565.69
2018-08-31T19:14:07.008Z,100565.41
2018-08-31T19:16:36.317Z,100577.92
2018-08-31T19:19:05.723Z,100576.41
2018-08-31T19:21:34.981Z,100580.61
2018-08-31T19:24:03.950Z,100577.23
2018-08-31T19:26:32.892Z,100581.40
2018-08-31T19:29:01.601Z,100589.92
2018-08-31T19:31:30.489Z,100596.64
2018-08-31T19:33:59.216Z,100601.23
2018-08-31T19:36:28.903Z,100604.95
2018-08-31T19:38:57.610Z,100602.00
2018-08-31T19:41:26.432Z,100605.20
2018-08-31T19:43:55.108Z,100604.82
2018-08-31T19:46:23.911Z,100607.11
2018-08-31T19:48:52.463Z,100608.55
2018-08-31T19:51:21.186Z,100607.75
2018-08-31T19:53:50.961Z,100610.05
2018-08-31T19:56:19.594Z,100557.38
2018-08-31T19:58:48.190Z,100607.53
2018-08-31T20:01:16.878Z,100608.95
2018-08-31T20:03:45.453Z,100612.53
2018-08-31T20:06:14.079Z,100620.11
2018-08-31T20:08:43.703Z,100616.25
2018-08-31T20:11:12.324Z,100614.59
2018-08-31T20:13:40.906Z,100619.08
2018-08-31T20:16:09.692Z,100625.37
2018-08-31T20:18:38.290Z,100631.62
2018-08-31T20:21:06.990Z,100627.81
2018-08-31T20:23:35.933Z,100629.59
2018-08-31T20:26:04.469Z,100631.00
2018-08-31T20:28:33.477Z,100635.06
2018-08-31T20:31:02.141Z,100632.03
2018-08-31T20:33:31.128Z,100632.54
2018-08-31T20:36:00.369Z,100629.12
2018-08-31T20:38:29.133Z,100633.63
2018-08-31T20:40:57.635Z,100637.25
2018-08-31T20:43:26.535Z,100632.46
2018-08-31T20:45:55.692Z,100636.99
2018-08-31T20:48:24.728Z,100635.30
2018-08-31T20:50:53.655Z,100643.32
2018-08-31T20:53:22.466Z,100646.04
2018-08-31T20:55:51.017Z,100646.53
2018-08-31T20:58:20.574Z,100645.71
2018-08-31T21:00:49.343Z,100650.19
2018-08-31T21:03:17.909Z,100651.99
2018-08-31T21:05:46.612Z,100652.50
2018-08-31T21:08:15.196Z,100655.17
2018-08-31T21:10:43.640Z,100653.92
2018-08-31T21:13:12.345Z,100653.59
2018-08-31T21:15:40.912Z,100650.13
2018-08-31T21:18:09.405Z,100648.45
2018-08-31T21:20:37.875Z,100646.27
2018-08-31T21:23:06.501Z,100650.72
2018-08-31T21:25:35.029Z,100648.58
2018-08-31T21:28:03.640Z,100646.47
2018-08-31T21:30:32.214Z,100657.97
2018-08-31T21:33:00.746Z,100666.40
2018-08-31T21:35:29.338Z,100665.62
2018-08-31T21:37:57.953Z,100661.69
2018-08-31T21:40:26.419Z,100663.49
2018-08-31T21:42:55.097Z,100665.73
2018-08-31T21:45:23.689Z,100671.08
2018-08-31T21:47:52.476Z,100668.03
2018-08-31T21:50:21.465Z,100666.34
2018-08-31T21:52:50.470Z,100669.93
2018-08-31T21:55:19.684Z,100672.59
2018-08-31T21:57:48.230Z,100672.66
2018-08-31T22:00:22.084Z,100669.61
2018-08-31T22:02:51.417Z,100665.70
2018-08-31T22:05:20.048Z,100673.20
2018-08-31T22:07:48.585Z,100672.78
2018-08-31T22:10:17.200Z,100675.02
2018-08-31T22:12:45.795Z,100677.72
2018-08-31T22:15:18.840Z,100679.06
2018-08-31T22:17:47.429Z,100680.86
2018-08-31T22:20:15.988Z,100677.80
2018-08-31T22:22:44.589Z,100678.77
2018-08-31T22:25:13.121Z,100679.72
2018-08-31T22:27:41.647Z,100679.78
2018-08-31T22:30:10.730Z,100678.06
2018-08-31T22:32:39.257Z,100680.28
2018-08-31T22:35:07.781Z,100681.23
2018-08-31T22:37:36.292Z,100678.59
2018-08-31T22:40:05.090Z,100680.39
2018-08-31T22:42:33.712Z,100677.81
2018-08-31T22:45:02.385Z,100676.97
2018-08-31T22:47:30.947Z,100676.58
2018-08-31T22:49:59.455Z,100673.56
2018-08-31T22:52:27.926Z,100679.31
2018-08-31T22:54:56.514Z,100678.48
2018-08-31T22:57:25.069Z,100678.95
2018-08-31T22:59:53.566Z,100679.43
2018-08-31T23:02:22.084Z,100679.48
2018-08-31T23:04:50.599Z,100672.52
2018-08-31T23:07:24.463Z,100675.65
2018-08-31T23:09:52.996Z,100681.41
2018-08-31T23:12:21.528Z,100676.61
2018-08-31T23:14:50.057Z,100673.56
2018-08-31T23:17:21.639Z,100678.88
2018-08-31T23:19:50.132Z,100678.08
2018-08-31T23:22:18.705Z,100676.34
2018-08-31T23:24:47.297Z,100681.19
2018-08-31T23:27:15.879Z,100679.02
2018-08-31T23:29:44.566Z,100685.15
2018-08-31T23:32:13.064Z,100685.61
2018-08-31T23:34:41.689Z,100683.44
2018-08-31T23:37:10.261Z,100686.08
2018-08-31T23:39:38.858Z,100683.45
2018-08-31T23:42:07.364Z,100684.81
2018-08-31T23:44:35.845Z,100688.34
2018-08-31T23:47:04.380Z,100682.22
2018-08-31T23:49:32.990Z,100684.90
2018-08-31T23:52:01.596Z,100686.66
2018-08-31T23:54:30.252Z,100685.80
2018-08-31T23:56:58.828Z,100680.99
2018-08-31T23:59:27.473Z,100685.38
